Time;durP1;ratioP1;P1;durP2;ratioP2;P2;SDS_P1;SDS_P2;PMS_P1;PMS_P2;Temp;Humidity;BMP_temperature;BMP_pressure;BME280_temperature;BME280_humidity;BME280_pressure;Samples;Min_cycle;Max_cycle;Signal;HPM_P1;HPM_P2
2023/05/27 00:02:27;;;;;;;21.77;9.60;;;;;;;;;;6252014;28;20027;-82
2023/05/27 00:05:27;;;;;;;18.67;7.97;;;;;;;;;;6271469;28;20028;-82
2023/05/27 00:08:27;;;;;;;14.47;7.13;;;;;;;;;;6268648;28;20037;-81
2023/05/27 00:11:27;;;;;;;21.47;7.10;;;;;;;;;;6268064;28;20411;-82
2023/05/27 00:14:28;;;;;;;15.93;7.87;;;;;;;;;;6266806;28;20064;-82
2023/05/27 00:17:28;;;;;;;17.37;6.93;;;;;;;;;;6249778;28;20025;-82
2023/05/27 00:20:30;;;;;;;18.17;6.75;;;;;;;;;;6251129;28;20395;-82
2023/05/27 00:23:30;;;;;;;14.80;6.15;;;;;;;;;;6268413;28;20031;-82
2023/05/27 00:26:31;;;;;;;15.90;8.10;;;;;;;;;;6251816;28;20056;-82
2023/05/27 00:29:31;;;;;;;21.83;7.03;;;;;;;;;;6270536;28;20029;-82
2023/05/27 00:32:31;;;;;;;17.30;8.07;;;;;;;;;;6267413;28;20498;-82
2023/05/27 00:35:31;;;;;;;20.67;6.83;;;;;;;;;;6269464;28;20017;-82
2023/05/27 00:38:31;;;;;;;18.00;6.70;;;;;;;;;;6267747;28;20042;-82
2023/05/27 00:41:32;;;;;;;20.00;6.73;;;;;;;;;;6244988;28;20455;-83
2023/05/27 00:44:32;;;;;;;22.37;7.20;;;;;;;;;;6261741;28;20463;-82
2023/05/27 00:47:33;;;;;;;13.67;6.33;;;;;;;;;;6267692;28;20029;-82
2023/05/27 00:50:33;;;;;;;18.33;6.37;;;;;;;;;;6264142;28;20026;-82
2023/05/27 00:53:38;;;;;;;16.40;6.57;;;;;;;;;;6251941;28;20029;-82
2023/05/27 00:56:38;;;;;;;14.85;6.97;;;;;;;;;;6248624;28;20049;-82
2023/05/27 00:59:39;;;;;;;20.93;7.57;;;;;;;;;;6266166;28;20053;-82
2023/05/27 01:02:42;;;;;;;23.07;8.67;;;;;;;;;;6249227;28;20028;-82
2023/05/27 01:05:42;;;;;;;18.35;6.00;;;;;;;;;;6267976;28;20040;-81
2023/05/27 01:08:51;;;;;;;21.73;6.37;;;;;;;;;;6267578;28;20472;-82
2023/05/27 01:12:11;;;;;;;16.48;7.20;;;;;;;;;;6249503;28;20040;-82
2023/05/27 01:15:12;;;;;;;22.58;5.95;;;;;;;;;;6245847;28;20053;-82
2023/05/27 01:18:16;;;;;;;13.60;6.90;;;;;;;;;;6250467;28;20025;-82
2023/05/27 01:21:18;;;;;;;18.55;6.15;;;;;;;;;;6260946;28;20122;-82
2023/05/27 01:24:18;;;;;;;;;;;;;;;;;;6266854;28;20033;-82
2023/05/27 01:27:18;;;;;;;16.52;6.05;;;;;;;;;;6264008;28;20780;-82
2023/05/27 01:30:20;;;;;;;21.70;6.67;;;;;;;;;;6266970;28;20388;-82
2023/05/27 01:33:23;;;;;;;24.42;6.72;;;;;;;;;;6247348;28;20013;-83
2023/05/27 01:36:24;;;;;;;17.63;6.57;;;;;;;;;;6268758;28;20044;-82
2023/05/27 01:39:26;;;;;;;21.00;7.97;;;;;;;;;;6269560;28;20128;-82
2023/05/27 01:42:26;;;;;;;17.88;6.93;;;;;;;;;;6255774;28;20021;-83
2023/05/27 01:45:26;;;;;;;16.97;7.13;;;;;;;;;;6275284;28;20479;-83
2023/05/27 01:48:27;;;;;;;18.40;6.70;;;;;;;;;;6274674;28;20025;-82
2023/05/27 01:51:27;;;;;;;23.13;7.90;;;;;;;;;;6276478;28;20024;-82
2023/05/27 01:54:27;;;;;;;17.43;8.13;;;;;;;;;;6278261;28;20009;-82
2023/05/27 01:57:29;;;;;;;19.10;7.90;;;;;;;;;;6275519;28;20012;-82
2023/05/27 02:00:29;;;;;;;16.67;7.85;;;;;;;;;;6272800;28;20024;-82
2023/05/27 02:03:30;;;;;;;17.30;7.43;;;;;;;;;;6273650;28;20040;-82
2023/05/27 02:06:32;;;;;;;20.03;8.77;;;;;;;;;;6239999;28;20029;-82
2023/05/27 02:09:32;;;;;;;22.67;9.00;;;;;;;;;;6252527;28;20016;-82
2023/05/27 02:12:32;;;;;;;20.80;6.17;;;;;;;;;;6252465;28;20172;-82
2023/05/27 02:15:32;;;;;;;19.37;7.53;;;;;;;;;;6251939;28;20013;-82
2023/05/27 02:18:33;;;;;;;17.03;8.17;;;;;;;;;;6270930;28;20414;-82
2023/05/27 02:21:33;;;;;;;21.40;6.30;;;;;;;;;;6270486;28;20095;-82
2023/05/27 02:24:34;;;;;;;23.43;9.53;;;;;;;;;;6270640;28;20025;-82
2023/05/27 02:27:34;;;;;;;19.67;6.30;;;;;;;;;;6270232;28;20017;-82
2023/05/27 02:30:34;;;;;;;15.47;6.40;;;;;;;;;;6270013;28;20039;-79
2023/05/27 02:33:35;;;;;;;21.13;8.33;;;;;;;;;;6248734;28;20036;-79
2023/05/27 02:36:35;;;;;;;15.13;6.37;;;;;;;;;;6270333;28;20028;-79
2023/05/27 02:39:35;;;;;;;17.17;6.23;;;;;;;;;;6270637;28;20474;-80
2023/05/27 02:42:35;;;;;;;22.03;6.93;;;;;;;;;;6270495;28;20468;-80
2023/05/27 02:45:36;;;;;;;17.87;6.90;;;;;;;;;;6266376;28;20013;-79
2023/05/27 02:48:36;;;;;;;17.00;7.67;;;;;;;;;;6270001;28;20793;-79
2023/05/27 02:51:36;;;;;;;19.90;5.77;;;;;;;;;;6267794;28;20449;-79
2023/05/27 02:54:37;;;;;;;19.23;6.50;;;;;;;;;;6268084;28;20021;-79
2023/05/27 02:57:37;;;;;;;19.43;7.70;;;;;;;;;;6270005;28;20396;-79
2023/05/27 03:00:37;;;;;;;25.10;7.87;;;;;;;;;;6269838;28;20031;-79
2023/05/27 03:03:37;;;;;;;17.10;7.97;;;;;;;;;;6269256;28;20025;-79
2023/05/27 03:06:37;;;;;;;19.43;6.40;;;;;;;;;;6264549;28;20035;-79
2023/05/27 03:09:38;;;;;;;25.47;7.87;;;;;;;;;;6268922;28;20506;-79
2023/05/27 03:12:38;;;;;;;20.43;7.20;;;;;;;;;;6265625;28;20048;-79
2023/05/27 03:15:38;;;;;;;18.50;7.60;;;;;;;;;;6268649;28;20064;-79
2023/05/27 03:18:39;;;;;;;13.37;6.43;;;;;;;;;;6250868;28;20495;-79
2023/05/27 03:21:39;;;;;;;23.00;8.70;;;;;;;;;;6250865;28;20020;-79
2023/05/27 03:24:40;;;;;;;18.40;7.50;;;;;;;;;;6247072;28;20099;-78
2023/05/27 03:27:40;;;;;;;29.87;8.77;;;;;;;;;;6247766;28;20483;-78
2023/05/27 03:30:43;;;;;;;20.50;9.67;;;;;;;;;;6269210;28;20051;-78
2023/05/27 03:33:43;;;;;;;19.27;6.43;;;;;;;;;;6246399;28;20492;-78
2023/05/27 03:36:46;;;;;;;18.27;5.77;;;;;;;;;;6262517;28;20143;-79
2023/05/27 03:39:46;;;;;;;21.63;8.23;;;;;;;;;;6250149;28;20029;-78
2023/05/27 03:42:46;;;;;;;23.43;7.30;;;;;;;;;;6250624;28;20358;-83
2023/05/27 03:45:46;;;;;;;27.80;7.73;;;;;;;;;;6265593;28;20021;-83
2023/05/27 03:48:47;;;;;;;14.50;5.60;;;;;;;;;;6265471;28;20017;-83
2023/05/27 03:51:47;;;;;;;12.93;5.40;;;;;;;;;;6250515;28;20029;-83
2023/05/27 03:54:47;;;;;;;20.20;7.50;;;;;;;;;;6267332;28;20017;-83
2023/05/27 03:57:47;;;;;;;21.57;6.20;;;;;;;;;;6263382;28;20077;-83
2023/05/27 04:00:47;;;;;;;24.33;6.23;;;;;;;;;;6247382;28;20025;-83
2023/05/27 04:03:49;;;;;;;23.73;6.37;;;;;;;;;;6263417;28;20037;-83
2023/05/27 04:06:50;;;;;;;13.52;5.55;;;;;;;;;;6263991;28;20056;-83
2023/05/27 04:09:50;;;;;;;30.52;6.25;;;;;;;;;;6262184;28;20029;-83
2023/05/27 04:12:51;;;;;;;15.50;5.67;;;;;;;;;;6251757;28;20041;-82
2023/05/27 04:15:51;;;;;;;20.60;5.73;;;;;;;;;;6267805;28;20036;-81
2023/05/27 04:18:51;;;;;;;24.20;6.30;;;;;;;;;;6249724;28;20086;-82
2023/05/27 04:21:52;;;;;;;20.98;4.97;;;;;;;;;;6268191;28;20021;-83
2023/05/27 04:24:52;;;;;;;28.23;7.17;;;;;;;;;;6267662;28;20033;-82
2023/05/27 04:27:53;;;;;;;17.77;6.00;;;;;;;;;;6265868;28;20032;-82
2023/05/27 04:30:53;;;;;;;21.27;6.53;;;;;;;;;;6267323;28;20047;-82
2023/05/27 04:33:54;;;;;;;32.77;7.40;;;;;;;;;;6249751;28;20033;-82
2023/05/27 04:36:55;;;;;;;17.55;5.75;;;;;;;;;;6267994;28;20553;-83
2023/05/27 04:39:56;;;;;;;22.73;5.85;;;;;;;;;;6268337;28;20075;-83
2023/05/27 04:42:57;;;;;;;17.40;5.53;;;;;;;;;;6267339;28;20476;-83
2023/05/27 04:45:59;;;;;;;20.47;5.80;;;;;;;;;;6268009;28;20090;-83
2023/05/27 04:49:00;;;;;;;15.02;4.68;;;;;;;;;;6249852;28;20036;-82
2023/05/27 04:52:00;;;;;;;13.07;4.73;;;;;;;;;;6268240;28;20051;-78
2023/05/27 04:55:01;;;;;;;19.93;6.40;;;;;;;;;;6266403;28;20103;-78
2023/05/27 04:58:03;;;;;;;19.77;6.20;;;;;;;;;;6266600;28;20025;-78
2023/05/27 05:01:04;;;;;;;21.55;6.20;;;;;;;;;;6266997;28;20025;-78
2023/05/27 05:04:14;;;;;;;19.00;5.60;;;;;;;;;;6266710;28;20017;-78
2023/05/27 05:07:14;;;;;;;19.80;4.95;;;;;;;;;;6267562;28;20272;-78
2023/05/27 05:10:15;;;;;;;16.63;5.20;;;;;;;;;;6232709;28;20407;-78
2023/05/27 05:13:16;;;;;;;14.83;5.27;;;;;;;;;;6266982;28;20041;-78
2023/05/27 05:16:16;;;;;;;13.10;5.13;;;;;;;;;;6270134;28;20100;-78
2023/05/27 05:19:16;;;;;;;20.73;6.50;;;;;;;;;;6254164;28;20028;-78
2023/05/27 05:22:18;;;;;;;26.37;8.50;;;;;;;;;;6272289;28;20029;-78
2023/05/27 05:25:18;;;;;;;26.05;7.25;;;;;;;;;;6254065;28;20787;-78
2023/05/27 05:28:19;;;;;;;26.40;8.80;;;;;;;;;;6272463;28;20063;-78
2023/05/27 05:31:19;;;;;;;29.57;9.10;;;;;;;;;;6269741;28;20467;-78
2023/05/27 05:34:19;;;;;;;29.97;8.50;;;;;;;;;;6270411;28;20154;-78
2023/05/27 05:37:19;;;;;;;18.23;8.05;;;;;;;;;;6266480;28;20048;-78
2023/05/27 05:40:21;;;;;;;24.47;7.23;;;;;;;;;;6269697;28;20064;-78
2023/05/27 05:43:21;;;;;;;;;;;;;;;;;;6270998;28;20032;-78
2023/05/27 05:46:21;;;;;;;17.25;7.50;;;;;;;;;;6271685;28;19956;-78
2023/05/27 05:49:21;;;;;;;20.37;8.83;;;;;;;;;;6271775;28;20025;-78
2023/05/27 05:52:22;;;;;;;25.00;11.50;;;;;;;;;;6272035;28;20029;-78
2023/05/27 05:55:22;;;;;;;31.63;11.57;;;;;;;;;;6255083;28;20080;-78
2023/05/27 05:58:22;;;;;;;30.20;11.20;;;;;;;;;;6272965;28;20476;-78
2023/05/27 06:01:23;;;;;;;23.30;9.63;;;;;;;;;;6254581;28;20071;-82
2023/05/27 06:04:23;;;;;;;28.10;9.33;;;;;;;;;;6252759;28;20549;-81
2023/05/27 06:07:23;;;;;;;26.53;7.90;;;;;;;;;;6270660;28;20478;-82
2023/05/27 06:10:24;;;;;;;20.00;7.40;;;;;;;;;;6269122;28;20706;-82
2023/05/27 06:13:24;;;;;;;21.27;7.87;;;;;;;;;;6267646;28;20519;-81
2023/05/27 06:16:25;;;;;;;17.80;5.83;;;;;;;;;;6251840;28;20021;-81
2023/05/27 06:19:25;;;;;;;17.13;5.78;;;;;;;;;;6251701;28;20013;-82
2023/05/27 06:22:25;;;;;;;25.97;8.47;;;;;;;;;;6273776;28;20036;-82
2023/05/27 06:25:26;;;;;;;23.83;8.00;;;;;;;;;;6252322;28;20021;-79
2023/05/27 06:28:26;;;;;;;23.27;7.50;;;;;;;;;;6250111;28;20024;-82
2023/05/27 06:31:27;;;;;;;20.77;6.67;;;;;;;;;;6269066;28;20021;-80
2023/05/27 06:34:27;;;;;;;19.35;5.40;;;;;;;;;;6266740;28;20068;-81
2023/05/27 06:37:27;;;;;;;14.33;5.27;;;;;;;;;;6268301;28;20041;-80
2023/05/27 06:40:28;;;;;;;11.98;3.75;;;;;;;;;;6276055;28;21233;-82
2023/05/27 06:43:28;;;;;;;13.50;4.67;;;;;;;;;;6259828;28;20703;-82
2023/05/27 06:46:28;;;;;;;12.20;4.77;;;;;;;;;;6247522;28;20503;-82
2023/05/27 06:49:29;;;;;;;9.68;3.97;;;;;;;;;;6254736;28;20139;-82
2023/05/27 06:52:29;;;;;;;16.17;3.87;;;;;;;;;;6275226;28;20057;-82
2023/05/27 06:55:29;;;;;;;;;;;;;;;;;;6272519;28;20098;-81
2023/05/27 06:58:29;;;;;;;8.63;3.70;;;;;;;;;;6269691;28;20130;-81
2023/05/27 07:01:31;;;;;;;;;;;;;;;;;;6270819;28;20108;-81
2023/05/27 07:04:31;;;;;;;16.60;5.00;;;;;;;;;;6273685;28;19908;-81
2023/05/27 07:07:31;;;;;;;15.93;5.65;;;;;;;;;;6253638;28;20294;-82
2023/05/27 07:10:32;;;;;;;;;;;;;;;;;;6261509;28;20056;-82
2023/05/27 07:13:32;;;;;;;19.15;5.47;;;;;;;;;;6277481;28;19913;-80
2023/05/27 07:16:32;;;;;;;;;;;;;;;;;;6249787;28;20411;-83
2023/05/27 07:19:33;;;;;;;15.23;5.67;;;;;;;;;;6255712;28;19904;-80
2023/05/27 07:22:33;;;;;;;;;;;;;;;;;;6267132;28;20041;-80
2023/05/27 07:25:33;;;;;;;13.43;4.47;;;;;;;;;;6267312;28;19983;-80
2023/05/27 07:28:33;;;;;;;;;;;;;;;;;;6266413;28;20025;-81
2023/05/27 07:31:34;;;;;;;17.98;5.53;;;;;;;;;;6262421;28;19904;-81
2023/05/27 07:34:34;;;;;;;;;;;;;;;;;;6269021;28;20112;-81
2023/05/27 07:37:34;;;;;;;20.40;8.73;;;;;;;;;;6267657;28;19912;-81
2023/05/27 07:40:35;;;;;;;17.07;6.27;;;;;;;;;;6249350;28;20870;-80
2023/05/27 07:43:35;;;;;;;;;;;;;;;;;;6264850;28;20102;-80
2023/05/27 07:46:38;;;;;;;17.75;8.10;;;;;;;;;;6268990;28;19920;-80
2023/05/27 07:49:38;;;;;;;17.55;7.53;;;;;;;;;;6268603;28;20044;-80
2023/05/27 07:52:38;;;;;;;;;;;;;;;;;;6269496;28;20021;-81
2023/05/27 07:55:39;;;;;;;16.48;4.50;;;;;;;;;;6255685;28;20434;-81
2023/05/27 07:58:39;;;;;;;;;;;;;;;;;;6250618;28;20075;-81
2023/05/27 08:01:39;;;;;;;15.07;4.18;;;;;;;;;;6250393;28;20023;-81
2023/05/27 08:04:40;;;;;;;;;;;;;;;;;;6251971;28;20479;-81
2023/05/27 08:07:40;;;;;;;17.88;4.15;;;;;;;;;;6268296;28;19919;-81
2023/05/27 08:10:40;;;;;;;;;;;;;;;;;;6268496;28;20056;-80
2023/05/27 08:13:42;;;;;;;11.30;3.78;;;;;;;;;;6242158;28;19916;-81
2023/05/27 08:16:42;;;;;;;12.70;3.88;;;;;;;;;;6243011;28;20021;-81
2023/05/27 08:19:42;;;;;;;;;;;;;;;;;;6243056;28;20458;-81
2023/05/27 08:22:42;;;;;;;12.30;3.60;;;;;;;;;;6243202;28;19978;-80
2023/05/27 08:25:43;;;;;;;;;;;;;;;;;;6243182;28;20076;-81
2023/05/27 08:28:43;;;;;;;13.00;4.43;;;;;;;;;;6241971;28;19909;-81
2023/05/27 08:31:43;;;;;;;;;;;;;;;;;;6240776;28;20017;-81
2023/05/27 08:34:43;;;;;;;13.43;4.18;;;;;;;;;;6238077;28;19940;-81
2023/05/27 08:37:43;;;;;;;;;;;;;;;;;;6239747;28;20021;-80
2023/05/27 08:40:44;;;;;;;10.63;3.90;;;;;;;;;;6240810;28;19943;-81
2023/05/27 08:43:44;;;;;;;10.52;3.83;;;;;;;;;;6242550;28;20502;-81
2023/05/27 08:46:46;;;;;;;12.18;3.47;;;;;;;;;;6236414;28;20554;-80
2023/05/27 08:49:46;;;;;;;11.27;3.65;;;;;;;;;;6236609;28;20495;-81
2023/05/27 08:52:49;;;;;;;11.37;4.13;;;;;;;;;;6242494;28;20017;-81
2023/05/27 08:55:51;;;;;;;12.07;3.83;;;;;;;;;;6238514;28;20083;-80
2023/05/27 08:58:53;;;;;;;9.60;3.40;;;;;;;;;;6242092;28;20473;-80
2023/05/27 09:01:54;;;;;;;13.98;4.40;;;;;;;;;;6240638;28;20384;-80
2023/05/27 09:04:55;;;;;;;8.55;3.15;;;;;;;;;;6240336;28;20022;-80
2023/05/27 09:07:55;;;;;;;11.93;3.80;;;;;;;;;;6242522;28;20022;-80
2023/05/27 09:10:56;;;;;;;16.43;4.03;;;;;;;;;;6241986;28;20022;-81
2023/05/27 09:13:56;;;;;;;14.50;5.13;;;;;;;;;;6250632;28;20115;-80
2023/05/27 09:16:56;;;;;;;11.20;3.70;;;;;;;;;;6266910;28;20013;-80
2023/05/27 09:19:56;;;;;;;11.60;3.53;;;;;;;;;;6266750;28;20108;-80
2023/05/27 09:22:57;;;;;;;15.97;4.60;;;;;;;;;;6263083;28;20024;-80
2023/05/27 09:25:58;;;;;;;14.55;3.75;;;;;;;;;;6267029;28;20502;-80
2023/05/27 09:29:02;;;;;;;10.75;3.45;;;;;;;;;;6264339;28;20059;-80
2023/05/27 09:32:03;;;;;;;14.07;4.10;;;;;;;;;;6262434;28;20021;-80
2023/05/27 09:35:07;;;;;;;13.38;4.32;;;;;;;;;;6248537;28;20055;-80
2023/05/27 09:38:07;;;;;;;11.30;3.45;;;;;;;;;;6267966;28;20025;-80
2023/05/27 09:41:07;;;;;;;8.73;4.00;;;;;;;;;;6266984;28;20025;-80
2023/05/27 09:44:08;;;;;;;11.60;3.47;;;;;;;;;;6266792;28;20024;-80
2023/05/27 09:47:11;;;;;;;13.20;4.32;;;;;;;;;;6264588;28;20017;-80
2023/05/27 09:50:13;;;;;;;9.52;4.00;;;;;;;;;;6259961;28;20041;-80
2023/05/27 09:53:14;;;;;;;12.25;4.10;;;;;;;;;;6260448;28;20464;-79
2023/05/27 09:56:14;;;;;;;8.77;3.10;;;;;;;;;;6262596;28;20025;-80
2023/05/27 09:59:15;;;;;;;13.05;4.70;;;;;;;;;;6261074;28;20410;-80
2023/05/27 10:02:17;;;;;;;11.00;3.00;;;;;;;;;;6264116;28;20103;-79
2023/05/27 10:05:20;;;;;;;14.57;5.00;;;;;;;;;;6269880;28;20021;-79
2023/05/27 10:08:21;;;;;;;9.35;3.92;;;;;;;;;;6270263;28;20020;-80
2023/05/27 10:11:21;;;;;;;8.77;3.20;;;;;;;;;;6249933;28;20021;-79
2023/05/27 10:14:21;;;;;;;10.40;2.90;;;;;;;;;;6265791;28;20104;-80
2023/05/27 10:17:22;;;;;;;11.30;3.60;;;;;;;;;;6253909;28;20047;-79
2023/05/27 10:20:28;;;;;;;13.87;4.53;;;;;;;;;;6269351;28;20024;-79
2023/05/27 10:23:30;;;;;;;12.45;5.03;;;;;;;;;;6267502;28;20012;-80
2023/05/27 10:26:39;;;;;;;7.53;3.33;;;;;;;;;;6266685;28;20052;-79
2023/05/27 10:29:39;;;;;;;13.48;5.40;;;;;;;;;;6265097;28;20447;-79
2023/05/27 10:32:43;;;;;;;16.00;7.07;;;;;;;;;;6270567;28;20021;-79
2023/05/27 10:35:49;;;;;;;11.43;3.85;;;;;;;;;;6270572;28;20021;-80
2023/05/27 10:38:56;;;;;;;15.15;3.60;;;;;;;;;;6272585;28;20017;-79
2023/05/27 10:41:57;;;;;;;8.18;3.35;;;;;;;;;;6254119;28;20017;-80
2023/05/27 10:45:05;;;;;;;9.85;3.58;;;;;;;;;;6270718;28;20059;-79
2023/05/27 10:48:14;;;;;;;8.05;3.67;;;;;;;;;;6249950;28;20368;-79
2023/05/27 10:51:14;;;;;;;7.10;3.08;;;;;;;;;;6269150;28;20017;-79
2023/05/27 10:54:15;;;;;;;12.73;4.70;;;;;;;;;;6271855;28;20032;-79
2023/05/27 10:57:16;;;;;;;14.60;4.35;;;;;;;;;;6272257;28;20017;-79
2023/05/27 11:00:16;;;;;;;;;;;;;;;;;;6269964;28;20035;-79
2023/05/27 11:03:17;;;;;;;11.35;5.80;;;;;;;;;;6268986;28;19908;-79
2023/05/27 11:06:18;;;;;;;13.77;4.47;;;;;;;;;;6250600;28;20387;-78
2023/05/27 11:09:18;;;;;;;9.20;4.17;;;;;;;;;;6247983;28;20104;-78
2023/05/27 11:12:19;;;;;;;10.98;3.85;;;;;;;;;;6267848;28;20044;-78
2023/05/27 11:15:19;;;;;;;8.82;3.13;;;;;;;;;;6250502;28;20025;-78
2023/05/27 11:18:20;;;;;;;11.53;4.63;;;;;;;;;;6251003;28;20021;-78
2023/05/27 11:21:20;;;;;;;10.20;4.30;;;;;;;;;;6268708;28;20536;-78
2023/05/27 11:24:21;;;;;;;11.70;5.20;;;;;;;;;;6264532;28;20014;-79
2023/05/27 11:27:22;;;;;;;9.65;4.18;;;;;;;;;;6244186;28;20016;-78
2023/05/27 11:30:27;;;;;;;9.37;3.40;;;;;;;;;;6251814;28;20028;-78
2023/05/27 11:33:32;;;;;;;10.73;3.50;;;;;;;;;;6250002;28;20041;-78
2023/05/27 11:36:36;;;;;;;6.40;3.60;;;;;;;;;;6265940;28;20009;-79
2023/05/27 11:39:36;;;;;;;9.02;3.10;;;;;;;;;;6265471;28;20024;-78
2023/05/27 11:42:36;;;;;;;7.20;3.17;;;;;;;;;;6270885;28;20039;-78
2023/05/27 11:45:36;;;;;;;13.67;4.70;;;;;;;;;;6267754;28;20505;-79
2023/05/27 11:48:37;;;;;;;8.50;3.87;;;;;;;;;;6266320;28;20139;-78
2023/05/27 11:51:38;;;;;;;7.47;3.20;;;;;;;;;;6266071;28;20100;-78
2023/05/27 11:54:39;;;;;;;10.68;4.45;;;;;;;;;;6266986;28;20016;-78
2023/05/27 11:57:39;;;;;;;7.00;3.03;;;;;;;;;;6268625;28;20570;-78
2023/05/27 12:00:39;;;;;;;9.57;3.40;;;;;;;;;;6268415;28;20162;-78
2023/05/27 12:03:41;;;;;;;11.83;4.17;;;;;;;;;;6267548;28;20107;-78
2023/05/27 12:06:42;;;;;;;13.18;5.28;;;;;;;;;;6265497;28;20503;-78
2023/05/27 12:09:42;;;;;;;9.88;3.85;;;;;;;;;;6243782;28;20031;-78
2023/05/27 12:12:44;;;;;;;8.40;4.50;;;;;;;;;;6257901;28;20568;-78
2023/05/27 12:15:44;;;;;;;7.43;3.33;;;;;;;;;;6262757;28;20024;-78
2023/05/27 12:18:45;;;;;;;8.23;2.83;;;;;;;;;;6265915;28;20021;-77
2023/05/27 12:21:45;;;;;;;10.13;3.50;;;;;;;;;;6266056;28;20082;-78
2023/05/27 12:24:51;;;;;;;10.40;3.20;;;;;;;;;;6261474;28;20051;-78
2023/05/27 12:27:51;;;;;;;7.63;3.10;;;;;;;;;;6261655;28;20352;-77
2023/05/27 12:30:51;;;;;;;9.83;3.40;;;;;;;;;;6239400;28;20025;-77
2023/05/27 12:33:52;;;;;;;12.38;3.50;;;;;;;;;;6266047;28;20109;-77
2023/05/27 12:36:52;;;;;;;9.77;4.07;;;;;;;;;;6265884;28;20467;-78
2023/05/27 12:39:52;;;;;;;;;;;;;;;;;;6262240;28;20017;-78
2023/05/27 12:42:52;;;;;;;8.63;3.00;;;;;;;;;;6265772;28;19985;-78
2023/05/27 12:45:52;;;;;;;;;;;;;;;;;;6241898;28;20510;-78
2023/05/27 12:48:53;;;;;;;6.68;3.15;;;;;;;;;;6248806;28;20066;-78
2023/05/27 12:51:53;;;;;;;;;;;;;;;;;;6265759;28;20126;-78
2023/05/27 12:54:53;;;;;;;12.10;3.25;;;;;;;;;;6264752;28;20379;-78
2023/05/27 12:57:53;;;;;;;8.37;2.97;;;;;;;;;;6257012;28;20033;-78
2023/05/27 13:00:54;;;;;;;8.77;2.40;;;;;;;;;;6267196;28;20400;-76
2023/05/27 13:03:54;;;;;;;5.38;2.80;;;;;;;;;;6265783;28;20146;-76
2023/05/27 13:06:54;;;;;;;8.53;2.60;;;;;;;;;;6267118;28;20032;-74
2023/05/27 13:09:56;;;;;;;7.38;2.40;;;;;;;;;;6266987;28;20078;-73
2023/05/27 13:12:58;;;;;;;8.63;3.47;;;;;;;;;;6267305;28;20043;-74
2023/05/27 13:15:59;;;;;;;9.00;2.78;;;;;;;;;;6256309;28;20025;-73
2023/05/27 13:18:59;;;;;;;11.97;3.80;;;;;;;;;;6266523;28;20027;-74
2023/05/27 13:21:59;;;;;;;8.77;4.03;;;;;;;;;;6264427;28;20129;-75
2023/05/27 13:25:00;;;;;;;11.68;3.80;;;;;;;;;;6266191;28;20075;-73
2023/05/27 13:28:01;;;;;;;10.57;3.97;;;;;;;;;;6267926;28;20039;-74
2023/05/27 13:31:01;;;;;;;9.98;3.75;;;;;;;;;;6246055;28;20051;-76
2023/05/27 13:34:02;;;;;;;11.20;4.45;;;;;;;;;;6248925;28;20467;-74
2023/05/27 13:37:02;;;;;;;8.80;3.70;;;;;;;;;;6266480;28;20027;-76
2023/05/27 13:40:03;;;;;;;7.85;3.08;;;;;;;;;;6270935;28;20551;-74
2023/05/27 13:43:03;;;;;;;6.03;2.38;;;;;;;;;;6270959;28;20017;-74
2023/05/27 13:46:05;;;;;;;3.63;2.17;;;;;;;;;;6270359;28;20036;-74
2023/05/27 13:49:05;;;;;;;8.52;2.72;;;;;;;;;;6270328;28;20025;-74
2023/05/27 13:52:05;;;;;;;6.22;3.60;;;;;;;;;;6269117;28;20636;-74
2023/05/27 13:55:05;;;;;;;9.83;3.93;;;;;;;;;;6270592;28;20108;-74
2023/05/27 13:58:06;;;;;;;8.68;3.80;;;;;;;;;;6270846;28;20395;-74
2023/05/27 14:01:06;;;;;;;11.27;3.63;;;;;;;;;;6270335;28;20078;-75
2023/05/27 14:04:07;;;;;;;6.75;3.20;;;;;;;;;;6267999;28;20049;-75
2023/05/27 14:07:07;;;;;;;6.45;2.13;;;;;;;;;;6252453;28;20144;-75
2023/05/27 14:10:07;;;;;;;3.67;2.07;;;;;;;;;;6269049;28;20025;-76
2023/05/27 14:13:07;;;;;;;5.82;2.13;;;;;;;;;;6270277;28;20437;-74
2023/05/27 14:16:08;;;;;;;6.17;2.67;;;;;;;;;;6268952;28;20843;-75
2023/05/27 14:19:08;;;;;;;10.83;3.77;;;;;;;;;;6246181;28;20029;-75
2023/05/27 14:22:08;;;;;;;6.20;2.63;;;;;;;;;;6269893;28;20036;-75
2023/05/27 14:25:08;;;;;;;6.32;2.22;;;;;;;;;;6269613;28;20029;-75
2023/05/27 14:28:09;;;;;;;10.05;2.50;;;;;;;;;;6264960;28;20833;-75
2023/05/27 14:31:09;;;;;;;8.20;3.63;;;;;;;;;;6265334;28;20132;-74
2023/05/27 14:34:09;;;;;;;7.23;2.93;;;;;;;;;;6270265;28;20378;-74
2023/05/27 14:37:10;;;;;;;5.63;3.00;;;;;;;;;;6267803;28;20096;-74
2023/05/27 14:40:10;;;;;;;6.05;2.20;;;;;;;;;;6267747;28;20268;-75
2023/05/27 14:43:12;;;;;;;5.13;2.50;;;;;;;;;;6251897;28;20076;-74
2023/05/27 14:46:12;;;;;;;3.97;2.65;;;;;;;;;;6264215;28;20671;-75
2023/05/27 14:49:12;;;;;;;5.50;2.42;;;;;;;;;;6258151;28;20465;-75
2023/05/27 14:52:12;;;;;;;;;;;;;;;;;;6269420;28;20990;-75
2023/05/27 14:55:12;;;;;;;4.82;1.98;;;;;;;;;;6269695;28;20384;-75
2023/05/27 14:58:12;;;;;;;;;;;;;;;;;;6252114;28;20021;-75
2023/05/27 15:01:13;;;;;;;9.52;3.00;;;;;;;;;;6264764;28;19951;-74
2023/05/27 15:04:13;;;;;;;;;;;;;;;;;;6268547;28;20491;-74
2023/05/27 15:07:14;;;;;;;12.85;3.78;;;;;;;;;;6268640;28;20387;-75
2023/05/27 15:10:14;;;;;;;8.85;3.90;;;;;;;;;;6246470;28;20021;-74
2023/05/27 15:13:15;;;;;;;6.10;3.20;;;;;;;;;;6240421;28;20048;-75
2023/05/27 15:16:15;;;;;;;4.72;2.53;;;;;;;;;;6264446;28;20037;-75
2023/05/27 15:19:15;;;;;;;8.07;2.63;;;;;;;;;;6263541;28;20140;-75
2023/05/27 15:22:15;;;;;;;5.43;2.07;;;;;;;;;;6261222;28;20385;-77
2023/05/27 15:25:16;;;;;;;7.87;2.17;;;;;;;;;;6263219;28;20032;-77
2023/05/27 15:28:16;;;;;;;5.57;2.53;;;;;;;;;;6266627;28;20020;-78
2023/05/27 15:31:17;;;;;;;5.17;2.03;;;;;;;;;;6268001;28;20016;-77
2023/05/27 15:34:17;;;;;;;6.22;2.60;;;;;;;;;;6262133;28;20021;-77
2023/05/27 15:37:18;;;;;;;6.20;2.97;;;;;;;;;;6261690;28;20044;-78
2023/05/27 15:40:18;;;;;;;4.63;2.10;;;;;;;;;;6268355;28;20021;-77
2023/05/27 15:43:18;;;;;;;9.27;3.37;;;;;;;;;;6269196;28;20078;-77
2023/05/27 15:46:20;;;;;;;7.90;1.83;;;;;;;;;;6267999;28;20021;-77
2023/05/27 15:49:20;;;;;;;11.25;2.95;;;;;;;;;;6247001;28;20037;-77
2023/05/27 15:52:20;;;;;;;7.57;2.70;;;;;;;;;;6250847;28;20017;-78
2023/05/27 15:55:21;;;;;;;4.00;1.53;;;;;;;;;;6253843;28;20029;-78
2023/05/27 15:58:21;;;;;;;9.03;2.83;;;;;;;;;;6270236;28;20017;-77
2023/05/27 16:01:21;;;;;;;7.53;2.77;;;;;;;;;;6259560;28;20016;-78
2023/05/27 16:04:21;;;;;;;4.10;2.03;;;;;;;;;;6271061;28;20087;-78
2023/05/27 16:07:21;;;;;;;6.13;2.37;;;;;;;;;;6270990;28;20020;-77
2023/05/27 16:10:22;;;;;;;5.07;2.50;;;;;;;;;;6271635;28;20505;-78
2023/05/27 16:13:23;;;;;;;2.93;2.00;;;;;;;;;;6263928;28;20099;-78
2023/05/27 16:16:24;;;;;;;4.65;2.47;;;;;;;;;;6267960;28;20110;-78
2023/05/27 16:19:24;;;;;;;10.73;5.30;;;;;;;;;;6267655;28;20025;-78
2023/05/27 16:22:24;;;;;;;6.83;3.67;;;;;;;;;;6266983;28;20029;-79
2023/05/27 16:25:25;;;;;;;9.37;4.80;;;;;;;;;;6265714;28;20025;-79
2023/05/27 16:28:25;;;;;;;8.23;3.47;;;;;;;;;;6249836;28;20108;-78
2023/05/27 16:31:25;;;;;;;16.13;8.35;;;;;;;;;;6267555;28;20017;-79
2023/05/27 16:34:25;;;;;;;7.07;2.90;;;;;;;;;;6249564;28;20107;-79
2023/05/27 16:37:25;;;;;;;9.57;2.53;;;;;;;;;;6259439;28;20024;-79
2023/05/27 16:40:26;;;;;;;7.47;3.00;;;;;;;;;;6260862;28;20017;-78
2023/05/27 16:43:27;;;;;;;6.17;2.53;;;;;;;;;;6261932;28;20143;-78
2023/05/27 16:46:27;;;;;;;13.18;2.47;;;;;;;;;;6267641;28;20021;-78
2023/05/27 16:49:27;;;;;;;18.00;2.83;;;;;;;;;;6265609;28;20020;-79
2023/05/27 16:52:27;;;;;;;7.07;2.33;;;;;;;;;;6267642;28;20017;-78
2023/05/27 16:55:29;;;;;;;5.50;2.33;;;;;;;;;;6267132;28;20067;-78
2023/05/27 16:58:29;;;;;;;4.80;2.03;;;;;;;;;;6244817;28;20021;-78
2023/05/27 17:01:29;;;;;;;6.18;3.53;;;;;;;;;;6244623;28;20041;-78
2023/05/27 17:04:30;;;;;;;6.53;2.50;;;;;;;;;;6261885;28;20074;-78
2023/05/27 17:07:30;;;;;;;9.40;2.40;;;;;;;;;;6267145;28;20095;-79
2023/05/27 17:10:30;;;;;;;9.37;2.30;;;;;;;;;;6250135;28;20013;-77
2023/05/27 17:13:31;;;;;;;5.78;2.13;;;;;;;;;;6274170;28;20048;-79
2023/05/27 17:16:31;;;;;;;3.38;2.22;;;;;;;;;;6265800;28;20013;-79
2023/05/27 17:19:32;;;;;;;6.57;2.63;;;;;;;;;;6268515;28;20060;-79
2023/05/27 17:22:33;;;;;;;9.60;2.67;;;;;;;;;;6271958;28;20093;-79
2023/05/27 17:25:33;;;;;;;8.93;3.00;;;;;;;;;;6251114;28;20017;-80
2023/05/27 17:28:33;;;;;;;11.43;3.27;;;;;;;;;;6271599;28;20544;-79
2023/05/27 17:31:33;;;;;;;17.73;7.70;;;;;;;;;;6273965;28;20146;-80
2023/05/27 17:34:34;;;;;;;12.87;6.57;;;;;;;;;;6272636;28;20859;-79
2023/05/27 17:37:35;;;;;;;7.63;3.25;;;;;;;;;;6272913;28;20025;-80
2023/05/27 17:40:35;;;;;;;9.27;3.63;;;;;;;;;;6268619;28;20538;-79
2023/05/27 17:43:35;;;;;;;8.53;3.83;;;;;;;;;;6275700;28;20021;-78
2023/05/27 17:46:35;;;;;;;12.03;3.20;;;;;;;;;;6278496;28;20391;-79
2023/05/27 17:49:36;;;;;;;11.57;4.30;;;;;;;;;;6260028;28;20151;-79
2023/05/27 17:52:36;;;;;;;11.33;4.97;;;;;;;;;;6261352;28;20103;-80
2023/05/27 17:55:38;;;;;;;10.97;3.93;;;;;;;;;;6278673;28;20021;-80
2023/05/27 17:58:38;;;;;;;;;;;;;;;;;;6271865;28;20017;-79
2023/05/27 18:01:38;;;;;;;11.77;3.65;;;;;;;;;;6277119;28;19970;-79
2023/05/27 18:04:38;;;;;;;9.63;3.27;;;;;;;;;;6255782;28;20012;-80